Time;durP1;ratioP1;P1;durP2;ratioP2;P2;SDS_P1;SDS_P2;PMS_P1;PMS_P2;Temp;Humidity;BMP_temperature;BMP_pressure;BME280_temperature;BME280_humidity;BME280_pressure;Samples;Min_cycle;Max_cycle;Signal;HPM_P1;HPM_P2
2022/06/13 00:00:21;;;;;;;12.15;4.75;;;14.50;99.90;;;;;;5073054;28;20032;-73
2022/06/13 00:02:46;;;;;;;12.07;4.72;;;14.60;99.90;;;;;;5073056;28;20079;-73
2022/06/13 00:05:13;;;;;;;10.13;4.65;;;14.60;99.90;;;;;;5073010;28;20490;-74
2022/06/13 00:07:39;;;;;;;17.27;5.15;;;14.60;99.90;;;;;;5072650;28;20795;-74
2022/06/13 00:10:06;;;;;;;12.82;5.10;;;14.50;99.90;;;;;;5072923;28;20126;-73
2022/06/13 00:12:32;;;;;;;13.82;5.25;;;14.50;99.90;;;;;;5072834;28;20042;-74
2022/06/13 00:14:57;;;;;;;9.63;4.53;;;14.50;99.90;;;;;;5072771;28;20441;-73
2022/06/13 00:17:23;;;;;;;12.05;4.85;;;14.40;99.90;;;;;;5072760;28;20093;-74
2022/06/13 00:19:49;;;;;;;13.95;5.30;;;14.40;99.90;;;;;;5072789;28;20072;-73
2022/06/13 00:22:14;;;;;;;13.80;5.00;;;14.40;99.90;;;;;;5072345;28;20068;-74
2022/06/13 00:24:40;;;;;;;16.98;5.63;;;14.40;99.90;;;;;;5072655;28;20044;-73
2022/06/13 00:27:06;;;;;;;9.98;5.00;;;14.30;99.90;;;;;;5072824;28;20040;-73
2022/06/13 00:29:31;;;;;;;10.30;4.45;;;14.30;99.90;;;;;;5072752;28;20044;-73
2022/06/13 00:31:57;;;;;;;13.38;5.63;;;14.20;99.90;;;;;;5071094;28;20040;-73
2022/06/13 00:34:23;;;;;;;12.02;5.45;;;14.20;99.90;;;;;;5072361;28;20040;-73
2022/06/13 00:36:48;;;;;;;14.57;5.43;;;14.20;99.90;;;;;;5072722;28;20033;-73
2022/06/13 00:39:15;;;;;;;15.80;5.88;;;14.30;99.90;;;;;;5072651;28;20040;-73
2022/06/13 00:41:42;;;;;;;16.35;5.07;;;14.20;99.90;;;;;;5070809;28;20068;-73
2022/06/13 00:44:30;;;;;;;11.98;5.50;;;14.20;99.90;;;;;;5072524;28;20089;-73
2022/06/13 00:46:56;;;;;;;15.50;5.05;;;14.20;99.90;;;;;;5072257;28;20032;-73
2022/06/13 00:49:41;;;;;;;12.20;5.90;;;14.20;99.90;;;;;;5072534;28;20074;-73
2022/06/13 00:52:17;;;;;;;14.77;6.25;;;14.20;99.90;;;;;;5070725;28;20119;-73
2022/06/13 00:54:45;;;;;;;10.80;5.13;;;14.10;99.90;;;;;;5072101;28;20524;-73
2022/06/13 00:57:28;;;;;;;17.92;6.03;;;14.20;99.90;;;;;;5071191;28;20044;-73
2022/06/13 01:00:02;;;;;;;15.70;6.13;;;14.10;99.90;;;;;;5054136;28;20075;-74
2022/06/13 01:02:28;;;;;;;17.98;5.30;;;14.10;99.90;;;;;;5072035;28;20085;-74
2022/06/13 01:04:56;;;;;;;16.50;5.72;;;14.10;99.90;;;;;;5072181;28;20053;-73
2022/06/13 01:07:22;;;;;;;17.40;5.90;;;14.10;99.90;;;;;;5072122;28;20072;-73
2022/06/13 01:12:34;;;;;;;10.75;5.00;;;14.10;99.90;;;;;;5071907;28;20578;-73
2022/06/13 01:15:16;;;;;;;14.25;6.13;;;14.00;99.90;;;;;;5072043;28;20052;-73
2022/06/13 01:18:03;;;;;;;17.23;6.95;;;14.10;99.90;;;;;;5071007;28;20093;-73
2022/06/13 01:20:51;;;;;;;14.57;5.95;;;14.00;99.90;;;;;;5070957;28;20582;-73
2022/06/13 01:23:29;;;;;;;11.63;5.90;;;14.00;99.90;;;;;;5070731;28;20041;-74
2022/06/13 01:26:16;;;;;;;14.00;6.00;;;14.00;99.90;;;;;;5072007;28;20086;-73
2022/06/13 01:29:15;;;;;;;17.60;6.22;;;14.00;99.90;;;;;;5071672;28;20076;-73
2022/06/13 01:32:03;;;;;;;22.48;6.82;;;14.00;99.90;;;;;;5071417;28;20520;-73
2022/06/13 01:35:01;;;;;;;21.50;5.88;;;13.90;99.90;;;;;;5071900;28;20050;-73
2022/06/13 01:37:52;;;;;;;18.00;6.95;;;13.90;99.90;;;;;;5095952;28;20549;-73
2022/06/13 01:40:41;;;;;;;13.07;6.03;;;13.80;99.90;;;;;;5091854;28;20494;-74
2022/06/13 01:43:25;;;;;;;14.55;7.32;;;13.80;99.90;;;;;;5092427;28;20035;-73
2022/06/13 01:46:06;;;;;;;10.85;5.88;;;13.80;99.90;;;;;;5093554;28;20048;-73
2022/06/13 01:48:45;;;;;;;17.48;5.88;;;13.70;99.90;;;;;;5092586;28;20043;-73
2022/06/13 01:51:27;;;;;;;14.68;6.75;;;13.70;99.90;;;;;;5091943;28;20072;-73
2022/06/13 01:54:04;;;;;;;17.00;7.07;;;13.70;99.90;;;;;;5092045;28;20036;-73
2022/06/13 01:56:35;;;;;;;17.52;6.47;;;13.70;99.90;;;;;;5091922;28;20039;-73
2022/06/13 01:59:16;;;;;;;19.27;7.10;;;13.70;99.90;;;;;;5091914;28;20043;-73
2022/06/13 02:01:55;;;;;;;17.50;7.57;;;13.70;99.90;;;;;;5098414;28;20040;-73
2022/06/13 02:04:31;;;;;;;17.92;6.90;;;13.80;99.90;;;;;;5112380;28;20094;-73
2022/06/13 02:07:03;;;;;;;26.80;7.30;;;13.80;99.90;;;;;;5112317;28;20059;-73
2022/06/13 02:09:35;;;;;;;17.65;6.63;;;13.80;99.90;;;;;;5111146;28;20054;-73
2022/06/13 02:12:01;;;;;;;16.63;7.10;;;13.80;99.90;;;;;;5111772;28;20195;-73
2022/06/13 02:14:49;;;;;;;15.15;6.55;;;13.90;99.90;;;;;;5111852;28;20324;-73
2022/06/13 02:17:18;;;;;;;19.70;7.30;;;13.80;99.90;;;;;;5112211;28;20567;-73
2022/06/13 02:19:59;;;;;;;18.25;7.07;;;13.80;99.90;;;;;;5112065;28;20509;-74
2022/06/13 02:22:38;;;;;;;21.77;8.20;;;13.80;99.90;;;;;;5110972;28;20032;-73
2022/06/13 02:25:25;;;;;;;16.77;7.55;;;13.80;99.90;;;;;;5112586;28;20043;-73
2022/06/13 02:28:00;;;;;;;18.00;7.55;;;13.80;99.90;;;;;;5111300;28;20132;-73
2022/06/13 02:30:30;;;;;;;20.98;8.23;;;13.80;99.90;;;;;;5111663;28;20044;-73
2022/06/13 02:33:04;;;;;;;17.60;6.95;;;13.90;99.90;;;;;;5107529;28;20044;-73
2022/06/13 02:35:36;;;;;;;18.30;8.23;;;13.80;99.90;;;;;;5115955;28;20228;-73
2022/06/13 02:38:10;;;;;;;16.52;7.47;;;13.90;99.90;;;;;;5116207;28;20043;-73
2022/06/13 02:40:44;;;;;;;19.35;8.00;;;13.80;99.90;;;;;;5115683;28;20412;-73
2022/06/13 02:43:12;;;;;;;16.10;7.22;;;13.90;99.90;;;;;;5106128;28;20071;-73
2022/06/13 02:45:37;;;;;;;12.38;6.68;;;13.90;99.90;;;;;;5112593;28;20168;-73
2022/06/13 02:48:29;;;;;;;20.55;8.48;;;13.90;99.90;;;;;;5115686;28;20093;-73
2022/06/13 02:51:11;;;;;;;19.10;7.68;;;13.90;99.90;;;;;;5113984;28;20055;-73
2022/06/13 02:54:00;;;;;;;19.38;8.77;;;13.80;99.90;;;;;;5115928;28;20032;-73
2022/06/13 02:56:37;;;;;;;19.33;8.50;;;13.80;99.90;;;;;;5115417;28;20101;-73
2022/06/13 02:59:24;;;;;;;16.63;7.90;;;13.90;99.90;;;;;;5115494;28;20082;-73
2022/06/13 03:01:52;;;;;;;19.40;8.32;;;13.80;99.90;;;;;;5114700;28;20040;-74
2022/06/13 03:04:42;;;;;;;24.25;8.30;;;13.80;99.90;;;;;;5114225;28;20043;-73
2022/06/13 03:07:19;;;;;;;19.65;8.73;;;13.90;99.90;;;;;;5115537;28;20039;-73
2022/06/13 03:09:49;;;;;;;17.05;7.57;;;13.90;99.90;;;;;;5115280;28;20086;-73
2022/06/13 03:12:23;;;;;;;18.08;7.82;;;13.90;99.90;;;;;;5115075;27;20039;-73
2022/06/13 03:14:56;;;;;;;17.65;9.18;;;13.90;99.90;;;;;;5114946;28;20421;-73
2022/06/13 03:17:43;;;;;;;18.75;8.68;;;14.00;99.90;;;;;;5113760;28;20031;-73
2022/06/13 03:20:28;;;;;;;17.77;8.82;;;13.90;99.90;;;;;;5114545;28;20039;-73
2022/06/13 03:23:02;;;;;;;13.68;7.80;;;13.90;99.90;;;;;;5114815;28;20067;-73
2022/06/13 03:25:33;;;;;;;16.92;7.05;;;13.90;99.90;;;;;;5114923;28;20112;-73
2022/06/13 03:28:15;;;;;;;23.77;9.98;;;14.00;99.90;;;;;;5114553;28;20494;-73
2022/06/13 03:30:48;;;;;;;17.55;8.02;;;13.90;99.90;;;;;;5114356;28;20046;-73
2022/06/13 03:36:11;;;;;;;14.85;6.55;;;14.00;99.90;;;;;;5114639;28;20493;-73
2022/06/13 03:38:40;;;;;;;19.58;7.07;;;13.90;99.90;;;;;;5114878;28;20104;-73
2022/06/13 03:41:10;;;;;;;17.13;7.18;;;13.90;99.90;;;;;;5114092;28;20036;-73
2022/06/13 03:43:57;;;;;;;19.85;7.70;;;13.90;99.90;;;;;;5113643;28;20039;-73
2022/06/13 03:46:33;;;;;;;12.38;7.60;;;13.90;99.90;;;;;;5114547;28;20054;-73
2022/06/13 03:49:08;;;;;;;16.00;7.35;;;13.90;99.90;;;;;;5113229;28;20447;-73
2022/06/13 03:51:51;;;;;;;20.30;8.25;;;14.00;99.90;;;;;;5112527;28;20489;-73
2022/06/13 03:54:34;;;;;;;19.45;6.97;;;14.00;99.90;;;;;;5112772;28;20120;-73
2022/06/13 03:57:13;;;;;;;17.85;6.68;;;14.00;99.90;;;;;;5114213;28;20040;-73
2022/06/13 03:59:49;;;;;;;15.60;6.75;;;14.00;99.90;;;;;;5114137;28;20036;-73
2022/06/13 04:02:19;;;;;;;16.40;6.13;;;14.10;99.90;;;;;;5113563;28;20036;-73
2022/06/13 04:04:49;;;;;;;14.70;5.90;;;14.10;99.90;;;;;;5113821;28;20465;-73
2022/06/13 04:07:16;;;;;;;16.52;6.43;;;14.10;99.90;;;;;;5113914;28;20040;-73
2022/06/13 04:09:56;;;;;;;14.20;6.18;;;14.10;99.90;;;;;;5113856;28;20054;-73
2022/06/13 04:12:42;;;;;;;16.73;5.78;;;14.20;99.90;;;;;;5113617;28;20035;-73
2022/06/13 04:15:22;;;;;;;13.57;6.35;;;14.20;99.90;;;;;;5113619;28;20549;-74
2022/06/13 04:18:03;;;;;;;13.70;5.80;;;14.20;99.90;;;;;;5113750;28;20032;-73
2022/06/13 04:20:50;;;;;;;13.45;5.60;;;14.20;99.90;;;;;;5112168;28;20054;-73
2022/06/13 04:23:50;;;;;;;25.70;7.05;;;14.20;99.90;;;;;;5113363;28;20548;-73
2022/06/13 04:26:22;;;;;;;18.27;5.68;;;14.10;99.90;;;;;;5113542;28;20054;-74
2022/06/13 04:28:56;;;;;;;11.30;5.50;;;14.10;99.90;;;;;;5113462;28;20512;-73
2022/06/13 04:31:24;;;;;;;16.65;5.65;;;14.10;99.90;;;;;;5094930;28;20445;-73
2022/06/13 04:33:54;;;;;;;21.38;7.20;;;14.10;99.90;;;;;;5111988;28;20066;-73
2022/06/13 04:36:23;;;;;;;14.60;5.38;;;14.20;99.90;;;;;;5111928;28;20531;-73
2022/06/13 04:38:53;;;;;;;13.60;6.28;;;14.20;99.90;;;;;;5111905;28;20085;-74
2022/06/13 04:41:23;;;;;;;12.98;5.10;;;14.20;99.90;;;;;;5112797;28;20503;-74
2022/06/13 04:43:53;;;;;;;14.02;5.88;;;14.30;99.90;;;;;;5113102;28;20046;-73
2022/06/13 04:46:21;;;;;;;11.73;4.70;;;14.30;99.90;;;;;;5113036;28;20055;-73
2022/06/13 04:48:51;;;;;;;14.57;4.47;;;14.50;99.90;;;;;;5112830;28;20114;-74
2022/06/13 04:51:21;;;;;;;10.82;4.90;;;14.60;99.90;;;;;;5112874;28;20062;-73
2022/06/13 04:54:25;;;;;;;9.68;3.85;;;14.80;99.90;;;;;;5113115;28;20074;-73
2022/06/13 04:56:53;;;;;;;11.05;4.72;;;15.00;99.90;;;;;;5112844;28;20117;-73
2022/06/13 04:59:18;;;;;;;10.38;4.15;;;15.20;99.90;;;;;;5112698;28;20050;-73
2022/06/13 05:01:47;;;;;;;9.25;4.00;;;15.30;99.90;;;;;;5112438;28;20032;-73
2022/06/13 05:04:19;;;;;;;9.80;3.72;;;15.60;99.90;;;;;;5112569;28;20459;-73
2022/06/13 05:06:51;;;;;;;14.95;3.67;;;15.70;99.90;;;;;;5112783;28;20043;-73
2022/06/13 05:09:22;;;;;;;7.15;3.70;;;15.90;99.90;;;;;;5112679;27;20039;-72
2022/06/13 05:11:56;;;;;;;8.52;2.97;;;16.00;99.90;;;;;;5112587;28;20047;-73
2022/06/13 05:14:23;;;;;;;8.13;3.03;;;16.10;99.90;;;;;;5111825;28;20047;-73
2022/06/13 05:17:24;;;;;;;14.27;3.13;;;15.90;99.90;;;;;;5112635;28;20039;-73
2022/06/13 05:20:10;;;;;;;7.75;2.97;;;15.80;99.90;;;;;;5111095;28;20062;-73
2022/06/13 05:23:10;;;;;;;7.43;2.58;;;15.60;99.90;;;;;;5110810;28;20076;-73
2022/06/13 05:25:40;;;;;;;6.72;2.53;;;15.40;99.90;;;;;;5112751;28;20051;-73
2022/06/13 05:28:07;;;;;;;5.65;2.15;;;15.30;99.90;;;;;;5111149;28;20458;-73
2022/06/13 05:30:32;;;;;;;5.00;2.65;;;15.00;99.90;;;;;;5112082;28;20088;-72
2022/06/13 05:32:58;;;;;;;6.30;2.38;;;15.00;99.90;;;;;;5112400;28;20043;-73
2022/06/13 05:35:31;;;;;;;6.45;2.28;;;15.00;99.90;;;;;;5112551;28;20036;-73
2022/06/13 05:38:00;;;;;;;5.00;1.83;;;15.00;99.90;;;;;;5112424;28;20397;-73
2022/06/13 05:40:26;;;;;;;3.70;1.50;;;14.90;99.90;;;;;;5111843;28;20038;-74
2022/06/13 05:42:51;;;;;;;3.50;1.27;;;14.90;99.90;;;;;;5112303;28;20110;-73
2022/06/13 05:45:22;;;;;;;3.17;1.52;;;14.90;99.90;;;;;;5112537;28;20592;-73
2022/06/13 05:47:49;;;;;;;3.70;1.38;;;15.00;99.90;;;;;;5112420;28;20043;-73
2022/06/13 05:50:17;;;;;;;5.35;1.98;;;15.10;99.90;;;;;;5111800;28;20039;-73
2022/06/13 05:52:43;;;;;;;4.30;1.10;;;15.60;99.90;;;;;;5110774;28;20051;-73
2022/06/13 05:55:10;;;;;;;2.42;1.02;;;15.60;99.90;;;;;;5110649;28;20040;-73
2022/06/13 05:57:38;;;;;;;3.70;1.88;;;15.60;99.90;;;;;;5112039;28;20544;-74
2022/06/13 06:00:05;;;;;;;2.63;1.10;;;16.00;99.90;;;;;;5110698;28;20099;-73
2022/06/13 06:02:31;;;;;;;4.30;1.40;;;16.40;99.90;;;;;;5112046;28;20036;-73
2022/06/13 06:04:57;;;;;;;3.00;1.17;;;16.90;99.90;;;;;;5112417;28;20520;-73
2022/06/13 06:07:22;;;;;;;4.80;1.65;;;17.10;99.90;;;;;;5114838;28;20044;-73
2022/06/13 06:09:48;;;;;;;2.45;1.30;;;17.40;99.90;;;;;;5115650;28;20035;-73
2022/06/13 06:12:14;;;;;;;3.30;1.00;;;17.70;99.90;;;;;;5115801;28;20040;-73
2022/06/13 06:14:40;;;;;;;4.13;1.20;;;17.60;99.90;;;;;;5115818;27;20565;-73
2022/06/13 06:17:05;;;;;;;4.65;1.33;;;17.30;99.90;;;;;;5116025;28;20035;-73
2022/06/13 06:19:31;;;;;;;6.82;1.52;;;17.00;99.90;;;;;;5115775;28;20039;-74
2022/06/13 06:21:56;;;;;;;5.10;1.10;;;16.90;99.90;;;;;;5114013;28;20035;-74
2022/06/13 06:24:22;;;;;;;5.95;1.38;;;16.60;99.90;;;;;;5115669;28;20070;-74
2022/06/13 06:26:47;;;;;;;3.45;0.90;;;17.00;99.90;;;;;;5115564;28;20044;-73
2022/06/13 06:29:13;;;;;;;6.13;1.38;;;17.30;99.90;;;;;;5115793;28;20039;-74
2022/06/13 06:31:39;;;;;;;8.23;2.00;;;17.60;99.90;;;;;;5115537;28;20042;-75
2022/06/13 06:34:04;;;;;;;4.57;1.40;;;17.60;99.90;;;;;;5115648;28;20520;-74
2022/06/13 06:36:30;;;;;;;4.35;0.90;;;18.00;99.90;;;;;;5114862;28;20035;-74
2022/06/13 06:38:56;;;;;;;3.35;0.98;;;18.10;99.90;;;;;;5115642;28;20070;-74
2022/06/13 06:41:22;;;;;;;3.08;1.10;;;18.30;99.90;;;;;;5114992;28;20114;-73
2022/06/13 06:43:47;;;;;;;8.32;1.30;;;18.70;99.90;;;;;;5115482;28;20586;-73
2022/06/13 06:46:14;;;;;;;3.20;1.05;;;18.90;99.60;;;;;;5115605;28;20043;-73
2022/06/13 06:48:39;;;;;;;5.03;1.55;;;19.00;99.20;;;;;;5115200;28;20523;-74
2022/06/13 06:51:10;;;;;;;4.90;1.58;;;18.70;99.40;;;;;;5114968;28;20043;-73
2022/06/13 07:00:03;;;;;;;4.90;1.20;;;17.60;99.90;;;;;;5028177;28;20042;-73
2022/06/13 07:02:11;;;;;;;4.60;1.35;;;17.30;99.90;;;;;;5062525;28;20149;-73
2022/06/13 07:04:36;;;;;;;6.65;1.95;;;17.30;99.90;;;;;;5072916;28;20090;-74
2022/06/13 07:07:02;;;;;;;8.32;1.60;;;17.30;99.90;;;;;;5074319;28;20044;-74
2022/06/13 07:09:28;;;;;;;4.95;1.48;;;17.20;99.90;;;;;;5074375;28;20072;-74
2022/06/13 07:11:54;;;;;;;3.80;1.25;;;17.20;99.90;;;;;;5073935;28;20071;-75
2022/06/13 07:14:25;;;;;;;6.45;1.05;;;17.10;99.90;;;;;;5073983;28;20043;-73
2022/06/13 07:16:51;;;;;;;5.90;1.23;;;16.90;99.90;;;;;;5073227;28;20037;-74
2022/06/13 07:19:18;;;;;;;4.55;1.55;;;16.80;99.90;;;;;;5074365;28;20543;-73
2022/06/13 07:21:43;;;;;;;7.78;1.20;;;16.70;99.90;;;;;;5073821;28;20040;-73
2022/06/13 07:24:10;;;;;;;11.95;2.03;;;16.60;99.90;;;;;;5074140;28;20094;-74
2022/06/13 07:26:36;;;;;;;9.02;2.13;;;16.50;99.90;;;;;;5074000;28;20052;-74
2022/06/13 07:29:01;;;;;;;8.45;2.33;;;16.20;99.90;;;;;;5073858;28;20119;-72
2022/06/13 07:31:37;;;;;;;7.65;2.30;;;15.50;99.90;;;;;;5072253;28;20090;-73
2022/06/13 07:34:04;;;;;;;4.15;1.40;;;15.30;99.90;;;;;;5072762;28;20119;-73
2022/06/13 07:36:30;;;;;;;6.57;1.23;;;14.90;99.90;;;;;;5073795;28;20399;-73
2022/06/13 07:38:55;;;;;;;3.92;1.50;;;14.80;99.90;;;;;;5073745;28;20043;-74
2022/06/13 07:41:23;;;;;;;7.38;2.00;;;14.70;99.90;;;;;;5073314;28;20398;-72
2022/06/13 07:43:51;;;;;;;7.88;1.60;;;14.90;99.90;;;;;;5073717;28;20056;-73
2022/06/13 07:46:17;;;;;;;5.95;1.75;;;15.10;99.90;;;;;;5073770;28;20180;-73
2022/06/13 07:48:47;;;;;;;4.35;1.63;;;15.10;99.90;;;;;;5073882;28;20143;-73
2022/06/13 07:51:13;;;;;;;5.22;2.00;;;15.10;99.90;;;;;;5073479;28;20047;-73
2022/06/13 07:53:39;;;;;;;8.20;2.10;;;15.00;99.90;;;;;;5073536;28;20490;-73
2022/06/13 07:56:04;;;;;;;6.13;1.88;;;14.90;99.90;;;;;;5072120;28;20409;-73
2022/06/13 07:58:34;;;;;;;6.60;1.73;;;14.80;99.90;;;;;;5073468;28;20040;-75
2022/06/13 08:01:01;;;;;;;3.33;1.38;;;14.70;99.90;;;;;;5073138;28;20043;-74
2022/06/13 08:03:29;;;;;;;6.45;2.58;;;14.90;99.90;;;;;;5073189;28;20078;-74
2022/06/13 08:05:56;;;;;;;6.93;1.33;;;15.20;99.90;;;;;;5073260;28;20080;-74
2022/06/13 08:08:22;;;;;;;4.28;1.63;;;15.60;99.90;;;;;;5072007;28;20056;-74
2022/06/13 08:10:49;;;;;;;7.57;2.47;;;15.90;99.90;;;;;;5072731;28;20036;-74
2022/06/13 08:13:18;;;;;;;6.15;2.30;;;16.10;99.90;;;;;;5079839;28;20063;-75
2022/06/13 08:15:44;;;;;;;4.45;1.10;;;16.50;99.90;;;;;;5084490;28;20439;-74
2022/06/13 08:18:11;;;;;;;6.10;1.48;;;16.90;99.90;;;;;;5093295;28;20032;-75
2022/06/13 08:20:37;;;;;;;7.72;1.77;;;17.30;99.90;;;;;;5092817;28;20524;-74
2022/06/13 08:23:03;;;;;;;7.20;1.40;;;17.40;99.90;;;;;;5092922;28;20035;-75
2022/06/13 08:25:33;;;;;;;5.05;1.30;;;17.50;99.90;;;;;;5093046;28;20405;-75
2022/06/13 08:27:59;;;;;;;3.05;1.20;;;17.30;99.90;;;;;;5092971;28;20069;-74
2022/06/13 08:30:29;;;;;;;6.22;1.80;;;16.90;99.90;;;;;;5083997;28;20036;-75
2022/06/13 08:32:54;;;;;;;4.25;1.48;;;16.50;99.90;;;;;;5071531;28;20115;-74
2022/06/13 08:35:20;;;;;;;4.38;1.88;;;16.50;99.90;;;;;;5080217;28;20124;-75
2022/06/13 08:37:45;;;;;;;5.93;1.00;;;16.90;99.90;;;;;;5081632;28;20036;-76
2022/06/13 08:40:12;;;;;;;6.35;1.40;;;17.30;99.90;;;;;;5077482;28;20381;-74
2022/06/13 08:42:48;;;;;;;4.97;1.17;;;17.50;99.90;;;;;;5072460;28;20074;-74
2022/06/13 08:45:32;;;;;;;2.88;0.80;;;17.50;99.90;;;;;;5072570;28;20047;-75
2022/06/13 08:48:14;;;;;;;5.47;1.75;;;17.80;99.90;;;;;;5072518;28;20040;-75
2022/06/13 08:50:55;;;;;;;3.95;0.75;;;18.00;99.90;;;;;;5072249;28;20064;-75
2022/06/13 08:53:30;;;;;;;4.82;1.27;;;18.30;99.90;;;;;;5072387;28;20040;-73
2022/06/13 08:56:06;;;;;;;2.42;0.82;;;18.20;99.90;;;;;;5072351;28;20066;-74
2022/06/13 08:58:36;;;;;;;4.25;1.10;;;17.70;99.90;;;;;;5072241;28;20131;-73
2022/06/13 09:01:12;;;;;;;2.83;1.10;;;17.50;99.90;;;;;;5071987;28;20029;-74
2022/06/13 09:03:56;;;;;;;7.30;1.30;;;17.30;99.90;;;;;;5071952;28;20032;-73
2022/06/13 09:06:40;;;;;;;5.22;1.23;;;16.90;99.90;;;;;;5072150;28;20051;-73
2022/06/13 09:09:14;;;;;;;5.55;1.30;;;16.50;99.90;;;;;;5070716;28;20097;-72
2022/06/13 09:12:05;;;;;;;7.28;1.17;;;16.20;99.90;;;;;;5071818;28;20064;-73
2022/06/13 09:14:37;;;;;;;4.80;1.27;;;15.90;99.90;;;;;;5071013;28;20044;-73
2022/06/13 09:17:20;;;;;;;6.97;1.38;;;16.30;99.90;;;;;;5070691;28;20036;-73
2022/06/13 09:19:54;;;;;;;9.25;1.67;;;17.00;99.90;;;;;;5072615;28;20555;-77
2022/06/13 09:22:41;;;;;;;10.32;1.25;;;17.30;99.90;;;;;;5073945;28;20041;-76
2022/06/13 09:25:38;;;;;;;6.85;1.30;;;17.80;99.90;;;;;;5074840;28;20044;-75
2022/06/13 09:28:22;;;;;;;5.70;1.17;;;17.90;99.60;;;;;;5090555;28;20417;-76
2022/06/13 09:30:53;;;;;;;4.90;1.48;;;17.80;99.90;;;;;;5092468;28;20032;-76
2022/06/13 09:33:30;;;;;;;6.30;1.23;;;18.10;99.90;;;;;;5092605;28;20425;-79
2022/06/13 09:36:04;;;;;;;4.40;0.90;;;18.10;98.60;;;;;;5083800;28;20037;-76
2022/06/13 09:38:36;;;;;;;7.28;1.40;;;18.40;99.80;;;;;;5083548;28;20036;-77
2022/06/13 09:41:29;;;;;;;6.40;1.40;;;18.70;98.70;;;;;;5076840;28;20069;-78
2022/06/13 09:44:25;;;;;;;5.50;1.05;;;18.60;98.60;;;;;;5086393;28;20028;-76
2022/06/13 09:47:09;;;;;;;4.53;1.25;;;18.50;96.70;;;;;;5086062;28;20036;-75
2022/06/13 09:49:44;;;;;;;3.78;0.85;;;18.10;97.10;;;;;;5079801;28;20076;-77
2022/06/13 09:52:36;;;;;;;6.72;1.35;;;18.00;96.20;;;;;;5080735;28;20071;-76
2022/06/13 09:55:23;;;;;;;4.55;1.33;;;17.70;95.50;;;;;;5076935;28;20059;-76
2022/06/13 09:58:08;;;;;;;4.65;1.05;;;17.50;95.80;;;;;;5058641;28;20055;-76
2022/06/13 10:01:05;;;;;;;3.88;1.25;;;17.40;97.00;;;;;;5076744;28;20040;-76
2022/06/13 10:03:56;;;;;;;4.00;1.35;;;17.60;97.50;;;;;;5072302;28;20044;-77
2022/06/13 10:06:27;;;;;;;6.13;1.00;;;17.50;99.50;;;;;;5080829;28;20497;-76
2022/06/13 10:09:05;;;;;;;6.20;1.70;;;17.30;99.50;;;;;;5056471;28;20115;-77
2022/06/13 10:11:41;;;;;;;6.60;1.30;;;17.20;98.90;;;;;;5059051;28;20170;-76
2022/06/13 10:14:09;;;;;;;3.97;1.38;;;17.40;98.10;;;;;;5071984;28;20133;-76
2022/06/13 10:17:08;;;;;;;18.30;1.80;;;17.50;98.40;;;;;;5074090;28;20552;-76
2022/06/13 10:20:09;;;;;;;11.43;2.38;;;17.30;98.80;;;;;;5092016;28;20066;-77
2022/06/13 10:22:44;;;;;;;7.30;1.83;;;16.70;99.90;;;;;;5090207;28;20039;-76
2022/06/13 10:25:31;;;;;;;14.88;2.25;;;16.50;99.90;;;;;;5090913;28;20089;-78
2022/06/13 10:28:27;;;;;;;7.65;1.88;;;16.10;99.90;;;;;;5093411;28;20119;-75
2022/06/13 10:31:21;;;;;;;5.90;1.75;;;16.10;99.90;;;;;;5091015;28;20040;-75
2022/06/13 10:34:09;;;;;;;9.95;1.80;;;16.10;99.90;;;;;;5074131;28;20040;-76
2022/06/13 10:36:39;;;;;;;8.63;1.50;;;16.70;99.90;;;;;;5093912;28;20044;-76
2022/06/13 10:39:11;;;;;;;4.60;1.13;;;16.60;99.90;;;;;;5093700;28;20039;-75
2022/06/13 10:41:41;;;;;;;6.65;2.22;;;16.60;99.90;;;;;;5094246;28;20050;-76
2022/06/13 10:44:12;;;;;;;9.02;1.80;;;16.50;99.90;;;;;;5096113;28;20044;-76
2022/06/13 10:46:43;;;;;;;7.72;1.35;;;16.40;99.90;;;;;;5094973;28;20032;-76
2022/06/13 10:49:16;;;;;;;11.77;2.28;;;16.80;99.90;;;;;;5092861;28;20118;-76
2022/06/13 10:51:43;;;;;;;5.13;1.70;;;17.00;99.90;;;;;;5094965;28;20127;-77
2022/06/13 10:54:35;;;;;;;19.92;2.28;;;16.90;99.90;;;;;;5095859;28;20047;-76
2022/06/13 10:57:09;;;;;;;8.40;2.00;;;16.80;99.90;;;;;;5095951;28;20452;-77
2022/06/13 10:59:37;;;;;;;6.10;1.33;;;16.70;99.90;;;;;;5096371;28;20115;-75
2022/06/13 11:02:20;;;;;;;6.25;1.40;;;16.50;99.90;;;;;;5098120;28;20044;-74
2022/06/13 11:05:01;;;;;;;8.98;1.83;;;16.40;99.90;;;;;;5082073;28;20040;-75
2022/06/13 11:07:27;;;;;;;5.15;1.73;;;16.60;99.90;;;;;;5078079;28;20063;-75
2022/06/13 11:10:01;;;;;;;7.90;1.70;;;16.80;99.90;;;;;;5084131;28;20482;-77
2022/06/13 11:12:34;;;;;;;7.50;1.80;;;17.20;99.90;;;;;;5092877;28;20047;-76
2022/06/13 11:23:38;;;;;;;5.68;1.52;;;17.40;99.90;;;;;;5073785;28;20045;-75
2022/06/13 11:27:39;;;;;;;9.48;2.25;;;17.20;99.90;;;;;;5086926;28;20067;-75
2022/06/13 11:28:50;;;;;;;11.57;2.72;;;17.00;99.90;;;;;;5090923;28;20035;-75
2022/06/13 11:31:21;;;;;;;9.40;2.17;;;17.30;99.90;;;;;;5080818;28;20051;-75
2022/06/13 11:33:47;;;;;;;7.68;2.28;;;17.40;99.90;;;;;;5073980;28;20048;-76
2022/06/13 11:36:16;;;;;;;11.80;2.00;;;17.20;99.40;;;;;;5073843;28;20399;-76
2022/06/13 11:39:05;;;;;;;9.25;1.90;;;17.10;99.90;;;;;;5073670;28;20048;-75
2022/06/13 11:41:44;;;;;;;4.45;1.20;;;17.20;99.90;;;;;;5073231;28;20037;-75
2022/06/13 11:44:19;;;;;;;6.88;2.10;;;17.40;99.90;;;;;;5073818;28;20040;-75
2022/06/13 11:46:53;;;;;;;9.07;1.40;;;17.60;99.90;;;;;;5074149;28;20033;-75
2022/06/13 11:49:39;;;;;;;7.45;1.38;;;17.90;99.90;;;;;;5081974;28;20506;-77
2022/06/13 11:52:13;;;;;;;7.20;1.70;;;17.70;99.50;;;;;;5082099;28;20040;-74
2022/06/13 11:54:41;;;;;;;4.68;1.25;;;17.40;98.10;;;;;;5080598;28;20048;-75
2022/06/13 11:57:12;;;;;;;6.35;2.05;;;17.10;97.60;;;;;;5083637;28;20119;-76
2022/06/13 12:00:04;;;;;;;7.68;2.10;;;17.00;96.90;;;;;;5091183;28;20040;-75
2022/06/13 12:02:52;;;;;;;10.73;1.90;;;17.00;97.60;;;;;;5085458;28;20036;-77
2022/06/13 12:05:32;;;;;;;6.10;1.98;;;17.20;98.50;;;;;;5074726;28;20111;-76
2022/06/13 12:08:00;;;;;;;4.47;1.70;;;17.50;99.20;;;;;;5078406;28;20048;-75
2022/06/13 12:10:35;;;;;;;10.07;1.73;;;17.80;99.00;;;;;;5073062;28;20242;-75
2022/06/13 12:13:03;;;;;;;6.63;1.42;;;17.90;98.60;;;;;;5073006;28;20052;-75
2022/06/13 12:15:38;;;;;;;11.40;2.03;;;18.10;98.80;;;;;;5072856;28;20072;-75
2022/06/13 12:18:07;;;;;;;15.80;2.00;;;18.30;99.50;;;;;;5072429;28;20051;-76
2022/06/13 12:20:46;;;;;;;6.38;2.38;;;18.40;98.90;;;;;;5072034;28;20052;-75
2022/06/13 12:23:19;;;;;;;9.07;1.30;;;18.10;96.40;;;;;;5071464;28;20040;-76
2022/06/13 12:25:53;;;;;;;7.43;1.70;;;17.80;97.00;;;;;;5071326;28;20119;-77
2022/06/13 12:28:23;;;;;;;8.32;1.80;;;17.80;96.80;;;;;;5071654;28;20567;-76
2022/06/13 12:31:05;;;;;;;6.55;1.98;;;17.60;97.50;;;;;;5071296;28;20432;-76
2022/06/13 12:33:52;;;;;;;5.93;1.25;;;17.30;97.60;;;;;;5071967;28;20375;-77
2022/06/13 12:36:35;;;;;;;6.18;1.45;;;17.30;98.00;;;;;;5071362;28;20049;-75
2022/06/13 12:39:18;;;;;;;8.57;1.60;;;17.20;97.80;;;;;;5071828;28;20094;-74
2022/06/13 12:42:01;;;;;;;10.57;1.67;;;17.20;97.90;;;;;;5070661;28;20045;-74
2022/06/13 12:44:29;;;;;;;6.20;1.73;;;17.10;96.90;;;;;;5071048;28;20383;-74
2022/06/13 12:47:30;;;;;;;5.45;1.77;;;17.30;98.70;;;;;;5070901;28;20075;-75
2022/06/13 12:50:18;;;;;;;9.27;1.67;;;17.30;99.00;;;;;;5071838;28;20080;-75
2022/06/13 12:53:13;;;;;;;7.95;1.40;;;17.40;98.60;;;;;;5072292;28;20090;-74
2022/06/13 12:55:44;;;;;;;7.68;1.20;;;17.40;98.30;;;;;;5071177;28;20556;-74
2022/06/13 12:58:36;;;;;;;5.65;1.40;;;17.60;98.00;;;;;;5072188;28;20449;-74
2022/06/13 13:01:22;;;;;;;4.53;1.38;;;17.30;95.50;;;;;;5075619;28;20429;-75
2022/06/13 13:04:09;;;;;;;4.47;1.17;;;17.30;95.00;;;;;;5092742;28;20131;-73
2022/06/13 13:06:43;;;;;;;3.70;0.80;;;17.30;95.60;;;;;;5092541;28;20070;-73
2022/06/13 13:09:16;;;;;;;3.05;0.90;;;17.20;95.70;;;;;;5090937;28;20115;-73
2022/06/13 13:12:16;;;;;;;6.35;1.08;;;17.30;96.60;;;;;;5091814;28;20044;-73
2022/06/13 13:15:11;;;;;;;5.70;1.30;;;17.30;95.80;;;;;;5090816;28;20126;-73
2022/06/13 13:18:13;;;;;;;5.85;1.00;;;17.60;96.90;;;;;;5091999;28;20557;-72
2022/06/13 13:20:48;;;;;;;3.95;0.80;;;17.60;94.80;;;;;;5093226;28;20046;-74
2022/06/13 13:23:28;;;;;;;8.07;0.98;;;17.50;93.80;;;;;;5091287;28;20402;-75
2022/06/13 13:25:57;;;;;;;4.68;0.90;;;17.60;94.50;;;;;;5093272;28;20044;-75
2022/06/13 13:28:42;;;;;;;4.40;1.10;;;17.40;94.50;;;;;;5092314;28;20047;-74
2022/06/13 13:31:18;;;;;;;6.57;1.02;;;17.90;96.00;;;;;;5092911;28;20089;-74
2022/06/13 13:34:21;;;;;;;3.85;0.52;;;18.30;93.30;;;;;;5091939;28;20571;-76
2022/06/13 13:37:04;;;;;;;4.13;0.98;;;18.10;92.90;;;;;;5063155;28;20533;-74
2022/06/13 13:39:44;;;;;;;3.13;0.80;;;18.10;94.00;;;;;;5091952;28;20401;-75
2022/06/13 13:42:31;;;;;;;3.42;1.38;;;18.00;93.70;;;;;;5092907;28;20039;-74